sensor_id;sensor_type;location;lat;lon;timestamp;pressure;altitude;pressure_sealevel;temperature;humidity
73457;BME280;61691;53.072;6.582;2023-09-19T00:02:18;100453.28;;;15.38;81.18
73457;BME280;61691;53.072;6.582;2023-09-19T00:04:45;100443.16;;;15.26;81.31
73457;BME280;61691;53.072;6.582;2023-09-19T00:07:11;100427.03;;;15.11;81.38
73457;BME280;61691;53.072;6.582;2023-09-19T00:09:38;100465.84;;;15.30;81.50
73457;BME280;61691;53.072;6.582;2023-09-19T00:12:06;100454.53;;;15.20;81.50
73457;BME280;61691;53.072;6.582;2023-09-19T00:14:33;100462.06;;;15.16;81.42
73457;BME280;61691;53.072;6.582;2023-09-19T00:17:03;100443.44;;;15.00;81.27
73457;BME280;61691;53.072;6.582;2023-09-19T00:19:35;100460.59;;;15.05;81.30
73457;BME280;61691;53.072;6.582;2023-09-19T00:22:02;100465.97;;;14.97;81.59
73457;BME280;61691;53.072;6.582;2023-09-19T00:24:29;100451.00;;;14.88;81.72
73457;BME280;61691;53.072;6.582;2023-09-19T00:26:56;100469.63;;;14.96;81.38
73457;BME280;61691;53.072;6.582;2023-09-19T00:29:25;100486.66;;;14.95;81.45
73457;BME280;61691;53.072;6.582;2023-09-19T00:31:55;100485.03;;;14.86;81.24
73457;BME280;61691;53.072;6.582;2023-09-19T00:34:23;100483.34;;;14.85;81.42
73457;BME280;61691;53.072;6.582;2023-09-19T00:36:51;100478.03;;;14.77;81.30
73457;BME280;61691;53.072;6.582;2023-09-19T00:39:19;100479.03;;;14.76;81.62
73457;BME280;61691;53.072;6.582;2023-09-19T00:41:46;100426.38;;;14.38;81.20
73457;BME280;61691;53.072;6.582;2023-09-19T00:44:14;100482.72;;;14.67;81.43
73457;BME280;61691;53.072;6.582;2023-09-19T00:46:42;100477.06;;;14.62;81.71
73457;BME280;61691;53.072;6.582;2023-09-19T00:49:09;100466.41;;;14.54;81.38
73457;BME280;61691;53.072;6.582;2023-09-19T00:51:36;100486.75;;;14.55;81.21
73457;BME280;61691;53.072;6.582;2023-09-19T00:54:03;100472.09;;;14.43;81.46
73457;BME280;61691;53.072;6.582;2023-09-19T00:56:30;100463.06;;;14.27;81.67
73457;BME280;61691;53.072;6.582;2023-09-19T00:58:58;100497.09;;;14.42;81.34
73457;BME280;61691;53.072;6.582;2023-09-19T01:01:25;100511.28;;;14.50;81.26
73457;BME280;61691;53.072;6.582;2023-09-19T01:03:52;100519.44;;;14.41;81.04
73457;BME280;61691;53.072;6.582;2023-09-19T01:06:19;100506.38;;;14.38;81.20
73457;BME280;61691;53.072;6.582;2023-09-19T01:08:46;100460.72;;;14.00;81.10
73457;BME280;61691;53.072;6.582;2023-09-19T01:11:23;100512.72;;;14.28;81.06
73457;BME280;61691;53.072;6.582;2023-09-19T01:16:57;100534.03;;;14.28;80.78
73457;BME280;61691;53.072;6.582;2023-09-19T01:22:36;100537.53;;;14.21;81.08
73457;BME280;61691;53.072;6.582;2023-09-19T01:25:31;100532.03;;;14.14;81.03
73457;BME280;61691;53.072;6.582;2023-09-19T01:30:43;100532.88;;;14.15;80.79
73457;BME280;61691;53.072;6.582;2023-09-19T01:33:10;100527.72;;;14.05;80.84
73457;BME280;61691;53.072;6.582;2023-09-19T01:35:38;100525.03;;;13.97;80.84
73457;BME280;61691;53.072;6.582;2023-09-19T01:38:06;100510.03;;;13.88;80.94
73457;BME280;61691;53.072;6.582;2023-09-19T01:40:42;100545.34;;;14.06;80.67
73457;BME280;61691;53.072;6.582;2023-09-19T01:43:14;100544.34;;;14.07;80.54
73457;BME280;61691;53.072;6.582;2023-09-19T01:48:38;100525.66;;;13.91;80.62
73457;BME280;61691;53.072;6.582;2023-09-19T01:51:09;100549.50;;;14.01;80.51
73457;BME280;61691;53.072;6.582;2023-09-19T01:53:55;100539.00;;;13.99;80.42
73457;BME280;61691;53.072;6.582;2023-09-19T01:56:34;100547.34;;;13.96;80.44
73457;BME280;61691;53.072;6.582;2023-09-19T01:59:07;100531.00;;;13.83;80.64
73457;BME280;61691;53.072;6.582;2023-09-19T02:01:37;100549.50;;;13.92;80.41
73457;BME280;61691;53.072;6.582;2023-09-19T02:04:04;100549.00;;;13.89;80.44
73457;BME280;61691;53.072;6.582;2023-09-19T02:06:32;100543.81;;;13.87;80.45
73457;BME280;61691;53.072;6.582;2023-09-19T02:09:00;100546.34;;;13.89;80.41
73457;BME280;61691;53.072;6.582;2023-09-19T02:11:27;100536.34;;;13.83;80.13
73457;BME280;61691;53.072;6.582;2023-09-19T02:13:54;100544.31;;;13.83;80.14
73457;BME280;61691;53.072;6.582;2023-09-19T02:16:22;100537.94;;;13.76;80.11
73457;BME280;61691;53.072;6.582;2023-09-19T02:18:49;100543.97;;;13.78;80.04
73457;BME280;61691;53.072;6.582;2023-09-19T02:21:19;100500.25;;;13.46;80.28
73457;BME280;61691;53.072;6.582;2023-09-19T02:23:48;100532.28;;;13.71;79.98
73457;BME280;61691;53.072;6.582;2023-09-19T02:26:15;100557.28;;;13.78;80.17
73457;BME280;61691;53.072;6.582;2023-09-19T02:28:42;100501.06;;;13.47;80.37
73457;BME280;61691;53.072;6.582;2023-09-19T02:31:09;100529.25;;;13.57;80.15
73457;BME280;61691;53.072;6.582;2023-09-19T02:33:36;100568.59;;;13.72;80.05
73457;BME280;61691;53.072;6.582;2023-09-19T02:36:04;100567.25;;;13.68;80.12
73457;BME280;61691;53.072;6.582;2023-09-19T02:38:30;100535.53;;;13.48;80.22
73457;BME280;61691;53.072;6.582;2023-09-19T02:40:57;100554.94;;;13.67;79.95
73457;BME280;61691;53.072;6.582;2023-09-19T02:43:24;100568.06;;;13.68;80.33
73457;BME280;61691;53.072;6.582;2023-09-19T02:45:51;100559.56;;;13.65;80.13
73457;BME280;61691;53.072;6.582;2023-09-19T02:48:20;100560.56;;;13.64;80.55
73457;BME280;61691;53.072;6.582;2023-09-19T02:50:49;100534.19;;;13.44;80.28
73457;BME280;61691;53.072;6.582;2023-09-19T02:53:16;100565.88;;;13.64;80.69
73457;BME280;61691;53.072;6.582;2023-09-19T02:55:43;100487.16;;;13.19;80.97
73457;BME280;61691;53.072;6.582;2023-09-19T02:58:09;100557.91;;;13.64;80.98
73457;BME280;61691;53.072;6.582;2023-09-19T03:00:41;100576.38;;;13.65;80.90
73457;BME280;61691;53.072;6.582;2023-09-19T03:03:09;100550.38;;;13.51;81.02
73457;BME280;61691;53.072;6.582;2023-09-19T03:05:36;100576.53;;;13.64;81.01
73457;BME280;61691;53.072;6.582;2023-09-19T03:08:05;100555.72;;;13.59;80.90
73457;BME280;61691;53.072;6.582;2023-09-19T03:10:32;100570.56;;;13.70;81.13
73457;BME280;61691;53.072;6.582;2023-09-19T03:12:59;100561.59;;;13.71;81.05
73457;BME280;61691;53.072;6.582;2023-09-19T03:15:29;100564.44;;;13.77;81.39
73457;BME280;61691;53.072;6.582;2023-09-19T03:17:55;100550.09;;;13.70;81.30
73457;BME280;61691;53.072;6.582;2023-09-19T03:20:22;100557.28;;;13.78;81.25
73457;BME280;61691;53.072;6.582;2023-09-19T03:22:49;100537.47;;;13.72;81.03
73457;BME280;61691;53.072;6.582;2023-09-19T03:25:16;100547.94;;;13.74;81.41
73457;BME280;61691;53.072;6.582;2023-09-19T03:27:43;100488.91;;;13.36;81.20
73457;BME280;61691;53.072;6.582;2023-09-19T03:30:10;100568.59;;;13.72;81.36
73457;BME280;61691;53.072;6.582;2023-09-19T03:32:44;100587.91;;;13.74;81.18
73457;BME280;61691;53.072;6.582;2023-09-19T03:35:12;100576.56;;;13.72;81.47
73457;BME280;61691;53.072;6.582;2023-09-19T03:37:41;100569.69;;;13.61;81.34
73457;BME280;61691;53.072;6.582;2023-09-19T03:40:11;100561.53;;;13.54;81.48
73457;BME280;61691;53.072;6.582;2023-09-19T03:42:40;100573.38;;;13.68;81.41
73457;BME280;61691;53.072;6.582;2023-09-19T03:45:08;100582.06;;;13.70;81.35
73457;BME280;61691;53.072;6.582;2023-09-19T03:47:39;100559.53;;;13.56;81.37
73457;BME280;61691;53.072;6.582;2023-09-19T03:50:07;100563.03;;;13.57;81.33
73457;BME280;61691;53.072;6.582;2023-09-19T03:52:34;100564.88;;;13.56;81.51
73457;BME280;61691;53.072;6.582;2023-09-19T03:55:01;100564.88;;;13.56;81.47
73457;BME280;61691;53.072;6.582;2023-09-19T04:00:33;100578.50;;;13.53;81.73
73457;BME280;61691;53.072;6.582;2023-09-19T04:03:05;100582.22;;;13.61;82.04
73457;BME280;61691;53.072;6.582;2023-09-19T04:05:33;100560.19;;;13.50;82.07
73457;BME280;61691;53.072;6.582;2023-09-19T04:08:00;100584.25;;;13.75;82.11
73457;BME280;61691;53.072;6.582;2023-09-19T04:10:27;100566.91;;;13.71;81.80
73457;BME280;61691;53.072;6.582;2023-09-19T04:12:55;100537.88;;;13.51;81.77
73457;BME280;61691;53.072;6.582;2023-09-19T04:15:23;100592.44;;;13.81;81.48
73457;BME280;61691;53.072;6.582;2023-09-19T04:17:50;100585.59;;;13.79;81.75
73457;BME280;61691;53.072;6.582;2023-09-19T04:20:18;100591.09;;;13.85;81.88
73457;BME280;61691;53.072;6.582;2023-09-19T04:22:46;100602.28;;;13.89;81.97
73457;BME280;61691;53.072;6.582;2023-09-19T04:25:13;100586.31;;;13.89;81.96
73457;BME280;61691;53.072;6.582;2023-09-19T04:27:41;100602.97;;;13.99;81.91
73457;BME280;61691;53.072;6.582;2023-09-19T04:30:11;100596.81;;;13.99;81.86
73457;BME280;61691;53.072;6.582;2023-09-19T04:32:38;100597.31;;;14.02;82.07
73457;BME280;61691;53.072;6.582;2023-09-19T04:35:09;100598.00;;;14.04;81.71
73457;BME280;61691;53.072;6.582;2023-09-19T04:37:38;100597.31;;;14.02;81.60
73457;BME280;61691;53.072;6.582;2023-09-19T04:40:09;100598.16;;;14.03;81.27
73457;BME280;61691;53.072;6.582;2023-09-19T04:42:44;100584.28;;;13.91;81.38
73457;BME280;61691;53.072;6.582;2023-09-19T04:45:12;100615.47;;;14.07;81.37
73457;BME280;61691;53.072;6.582;2023-09-19T04:47:39;100618.81;;;14.09;81.61
73457;BME280;61691;53.072;6.582;2023-09-19T04:50:07;100627.50;;;14.11;81.62
73457;BME280;61691;53.072;6.582;2023-09-19T04:52:41;100614.03;;;14.12;81.74
73457;BME280;61691;53.072;6.582;2023-09-19T04:55:15;100579.97;;;13.90;81.53
73457;BME280;61691;53.072;6.582;2023-09-19T04:57:49;100620.34;;;14.11;81.77
73457;BME280;61691;53.072;6.582;2023-09-19T05:00:18;100605.16;;;14.04;81.92
73457;BME280;61691;53.072;6.582;2023-09-19T05:02:45;100619.16;;;14.06;81.64
73457;BME280;61691;53.072;6.582;2023-09-19T05:05:12;100616.00;;;14.10;81.46
73457;BME280;61691;53.072;6.582;2023-09-19T05:07:44;100609.97;;;14.00;81.59
73457;BME280;61691;53.072;6.582;2023-09-19T05:10:11;100637.03;;;14.13;81.57
73457;BME280;61691;53.072;6.582;2023-09-19T05:12:40;100630.16;;;14.11;81.93
73457;BME280;61691;53.072;6.582;2023-09-19T05:15:07;100580.09;;;13.80;81.96
73457;BME280;61691;53.072;6.582;2023-09-19T05:17:35;100629.50;;;14.09;81.74
73457;BME280;61691;53.072;6.582;2023-09-19T05:20:02;100587.59;;;13.85;81.75
73457;BME280;61691;53.072;6.582;2023-09-19T05:22:33;100604.47;;;13.93;82.07
73457;BME280;61691;53.072;6.582;2023-09-19T05:25:00;100608.63;;;13.96;81.72
73457;BME280;61691;53.072;6.582;2023-09-19T05:27:30;100626.31;;;13.97;82.09
73457;BME280;61691;53.072;6.582;2023-09-19T05:29:57;100611.47;;;13.94;81.83
73457;BME280;61691;53.072;6.582;2023-09-19T05:32:24;100612.59;;;13.92;81.90
73457;BME280;61691;53.072;6.582;2023-09-19T05:34:51;100626.97;;;14.07;82.07
73457;BME280;61691;53.072;6.582;2023-09-19T05:37:22;100614.63;;;13.90;82.13
73457;BME280;61691;53.072;6.582;2023-09-19T05:39:49;100595.78;;;13.91;82.11
73457;BME280;61691;53.072;6.582;2023-09-19T05:42:16;100626.63;;;14.02;82.01
73457;BME280;61691;53.072;6.582;2023-09-19T05:44:44;100619.31;;;13.96;81.92
73457;BME280;61691;53.072;6.582;2023-09-19T05:47:10;100611.28;;;13.88;82.06
73457;BME280;61691;53.072;6.582;2023-09-19T05:49:37;100639.31;;;14.08;82.22
73457;BME280;61691;53.072;6.582;2023-09-19T05:52:08;100647.16;;;14.10;81.89
73457;BME280;61691;53.072;6.582;2023-09-19T05:54:34;100615.78;;;13.87;81.98
73457;BME280;61691;53.072;6.582;2023-09-19T05:57:01;100638.81;;;14.05;82.18
73457;BME280;61691;53.072;6.582;2023-09-19T05:59:28;100619.31;;;13.96;81.96
73457;BME280;61691;53.072;6.582;2023-09-19T06:01:55;100626.78;;;14.01;81.87
73457;BME280;61691;53.072;6.582;2023-09-19T06:04:22;100646.00;;;14.12;82.06
73457;BME280;61691;53.072;6.582;2023-09-19T06:06:50;100621.31;;;14.02;81.96
73457;BME280;61691;53.072;6.582;2023-09-19T06:09:17;100644.34;;;14.11;81.99
73457;BME280;61691;53.072;6.582;2023-09-19T06:11:46;100660.00;;;14.22;82.01
73457;BME280;61691;53.072;6.582;2023-09-19T06:14:13;100655.34;;;14.16;81.90
73457;BME280;61691;53.072;6.582;2023-09-19T06:16:40;100667.34;;;14.28;81.88
73457;BME280;61691;53.072;6.582;2023-09-19T06:19:08;100656.50;;;14.22;81.55
73457;BME280;61691;53.072;6.582;2023-09-19T06:21:36;100635.00;;;14.15;81.50
73457;BME280;61691;53.072;6.582;2023-09-19T06:24:04;100664.59;;;14.38;81.53
73457;BME280;61691;53.072;6.582;2023-09-19T06:26:31;100675.13;;;14.48;81.45
73457;BME280;61691;53.072;6.582;2023-09-19T06:28:58;100671.13;;;14.52;81.35
73457;BME280;61691;53.072;6.582;2023-09-19T06:31:26;100666.78;;;14.59;81.52
73457;BME280;61691;53.072;6.582;2023-09-19T06:33:53;100679.31;;;14.75;81.23
73457;BME280;61691;53.072;6.582;2023-09-19T06:36:20;100672.16;;;14.83;81.30
73457;BME280;61691;53.072;6.582;2023-09-19T06:38:46;100664.50;;;14.88;80.59
73457;BME280;61691;53.072;6.582;2023-09-19T06:41:13;100668.50;;;14.92;80.57
73457;BME280;61691;53.072;6.582;2023-09-19T06:43:42;100663.69;;;14.96;80.27
73457;BME280;61691;53.072;6.582;2023-09-19T06:46:09;100694.84;;;15.11;80.11
73457;BME280;61691;53.072;6.582;2023-09-19T06:48:36;100661.66;;;14.98;80.06
73457;BME280;61691;53.072;6.582;2023-09-19T06:51:03;100677.97;;;15.19;79.73
73457;BME280;61691;53.072;6.582;2023-09-19T06:53:32;100679.34;;;15.23;79.65
73457;BME280;61691;53.072;6.582;2023-09-19T06:55:59;100654.16;;;15.18;79.56
73457;BME280;61691;53.072;6.582;2023-09-19T06:58:27;100652.28;;;15.26;79.42
73457;BME280;61691;53.072;6.582;2023-09-19T07:00:53;100665.75;;;15.49;79.46
73457;BME280;61691;53.072;6.582;2023-09-19T07:03:20;100657.75;;;15.57;78.70
73457;BME280;61691;53.072;6.582;2023-09-19T07:05:50;100651.06;;;15.61;78.37
73457;BME280;61691;53.072;6.582;2023-09-19T07:08:16;100676.41;;;15.73;77.76
73457;BME280;61691;53.072;6.582;2023-09-19T07:13:35;100674.41;;;15.75;77.39
73457;BME280;61691;53.072;6.582;2023-09-19T07:16:02;100669.06;;;15.75;77.25
73457;BME280;61691;53.072;6.582;2023-09-19T07:18:29;100664.41;;;15.77;77.12
73457;BME280;61691;53.072;6.582;2023-09-19T07:20:58;100672.72;;;15.82;76.23
73457;BME280;61691;53.072;6.582;2023-09-19T07:23:31;100673.38;;;15.84;76.36
73457;BME280;61691;53.072;6.582;2023-09-19T07:26:01;100681.84;;;15.96;76.27
73457;BME280;61691;53.072;6.582;2023-09-19T07:28:28;100633.31;;;15.76;75.89
73457;BME280;61691;53.072;6.582;2023-09-19T07:30:55;100685.97;;;16.15;75.75
73457;BME280;61691;53.072;6.582;2023-09-19T07:33:21;100686.97;;;16.14;74.95
73457;BME280;61691;53.072;6.582;2023-09-19T07:35:48;100662.63;;;16.01;74.99
73457;BME280;61691;53.072;6.582;2023-09-19T07:38:15;100687.75;;;16.22;74.95
73457;BME280;61691;53.072;6.582;2023-09-19T07:40:42;100670.28;;;16.04;74.54
73457;BME280;61691;53.072;6.582;2023-09-19T07:43:08;100667.31;;;15.99;74.33
73457;BME280;61691;53.072;6.582;2023-09-19T07:45:35;100672.47;;;16.08;74.05
73457;BME280;61691;53.072;6.582;2023-09-19T07:48:03;100681.41;;;16.23;74.11
73457;BME280;61691;53.072;6.582;2023-09-19T07:50:32;100646.59;;;16.01;74.39
73457;BME280;61691;53.072;6.582;2023-09-19T07:53:00;100688.19;;;16.34;74.22
73457;BME280;61691;53.072;6.582;2023-09-19T07:55:26;100661.16;;;16.29;73.82
73457;BME280;61691;53.072;6.582;2023-09-19T07:57:53;100684.19;;;16.38;73.38
73457;BME280;61691;53.072;6.582;2023-09-19T08:00:20;100670.09;;;16.44;73.51
73457;BME280;61691;53.072;6.582;2023-09-19T08:02:47;100678.53;;;16.56;73.38
73457;BME280;61691;53.072;6.582;2023-09-19T08:05:24;100670.66;;;16.62;73.26
73457;BME280;61691;53.072;6.582;2023-09-19T08:07:51;100672.31;;;16.63;72.95
73457;BME280;61691;53.072;6.582;2023-09-19T08:10:19;100676.72;;;16.79;72.47
73457;BME280;61691;53.072;6.582;2023-09-19T08:12:47;100687.56;;;16.86;71.53
73457;BME280;61691;53.072;6.582;2023-09-19T08:15:19;100692.50;;;16.74;71.68
73457;BME280;61691;53.072;6.582;2023-09-19T08:17:47;100692.38;;;16.68;71.64
73457;BME280;61691;53.072;6.582;2023-09-19T08:20:14;100658.88;;;16.41;71.61
73457;BME280;61691;53.072;6.582;2023-09-19T08:22:49;100691.75;;;16.57;71.69
73457;BME280;61691;53.072;6.582;2023-09-19T08:25:20;100705.44;;;16.62;71.58
73457;BME280;61691;53.072;6.582;2023-09-19T08:27:48;100682.88;;;16.57;71.63
73457;BME280;61691;53.072;6.582;2023-09-19T08:30:17;100681.19;;;16.64;71.31
73457;BME280;61691;53.072;6.582;2023-09-19T08:32:44;100667.63;;;16.66;71.49
73457;BME280;61691;53.072;6.582;2023-09-19T08:35:13;100690.78;;;16.81;71.08
73457;BME280;61691;53.072;6.582;2023-09-19T08:37:42;100653.97;;;16.60;71.12
73457;BME280;61691;53.072;6.582;2023-09-19T08:40:09;100668.25;;;16.76;70.75
73457;BME280;61691;53.072;6.582;2023-09-19T08:42:52;100670.84;;;16.84;70.82
73457;BME280;61691;53.072;6.582;2023-09-19T08:45:24;100673.16;;;16.87;70.49
73457;BME280;61691;53.072;6.582;2023-09-19T08:48:08;100688.44;;;17.01;70.29
73457;BME280;61691;53.072;6.582;2023-09-19T08:50:49;100685.66;;;16.94;70.29
73457;BME280;61691;53.072;6.582;2023-09-19T08:53:25;100695.47;;;17.02;70.39
73457;BME280;61691;53.072;6.582;2023-09-19T08:55:54;100682.75;;;17.04;70.62
73457;BME280;61691;53.072;6.582;2023-09-19T08:58:26;100673.31;;;17.08;69.86
73457;BME280;61691;53.072;6.582;2023-09-19T09:00:57;100662.59;;;17.08;70.10
73457;BME280;61691;53.072;6.582;2023-09-19T09:03:32;100655.03;;;17.12;70.26
73457;BME280;61691;53.072;6.582;2023-09-19T09:06:00;100663.78;;;17.28;69.93
73457;BME280;61691;53.072;6.582;2023-09-19T09:08:30;100627.72;;;17.16;69.49
73457;BME280;61691;53.072;6.582;2023-09-19T09:10:58;100682.88;;;17.63;69.42
73457;BME280;61691;53.072;6.582;2023-09-19T09:13:25;100693.25;;;17.66;69.31
73457;BME280;61691;53.072;6.582;2023-09-19T09:15:53;100682.50;;;17.66;68.86
73457;BME280;61691;53.072;6.582;2023-09-19T09:18:21;100700.34;;;17.73;69.03
73457;BME280;61691;53.072;6.582;2023-09-19T09:20:49;100697.47;;;17.75;68.46
73457;BME280;61691;53.072;6.582;2023-09-19T09:23:16;100701.63;;;17.77;68.66
73457;BME280;61691;53.072;6.582;2023-09-19T09:25:53;100710.88;;;17.90;67.98
73457;BME280;61691;53.072;6.582;2023-09-19T09:28:25;100689.91;;;17.93;67.79
73457;BME280;61691;53.072;6.582;2023-09-19T09:30:53;100692.75;;;17.92;67.84
73457;BME280;61691;53.072;6.582;2023-09-19T09:33:21;100688.72;;;17.96;67.58
73457;BME280;61691;53.072;6.582;2023-09-19T09:35:55;100695.44;;;18.06;67.41
73457;BME280;61691;53.072;6.582;2023-09-19T09:38:28;100701.34;;;18.16;67.29
73457;BME280;61691;53.072;6.582;2023-09-19T09:40:55;100698.16;;;18.28;66.90
73457;BME280;61691;53.072;6.582;2023-09-19T09:43:37;100668.66;;;18.28;66.81
73457;BME280;61691;53.072;6.582;2023-09-19T09:51:44;100660.78;;;18.41;65.34
73457;BME280;61691;53.072;6.582;2023-09-19T09:54:25;100645.50;;;18.41;65.60
73457;BME280;61691;53.072;6.582;2023-09-19T09:56:56;100674.25;;;18.62;64.95
73457;BME280;61691;53.072;6.582;2023-09-19T09:59:47;100682.13;;;18.64;64.62
73457;BME280;61691;53.072;6.582;2023-09-19T10:02:26;100688.31;;;18.64;64.35
73457;BME280;61691;53.072;6.582;2023-09-19T10:04:56;100680.50;;;18.69;64.27
73457;BME280;61691;53.072;6.582;2023-09-19T10:07:48;100676.28;;;18.60;64.02
73457;BME280;61691;53.072;6.582;2023-09-19T10:10:36;100678.53;;;18.57;63.48
73457;BME280;61691;53.072;6.582;2023-09-19T10:13:11;100654.75;;;18.39;64.00
73457;BME280;61691;53.072;6.582;2023-09-19T10:15:48;100675.63;;;18.58;63.85
73457;BME280;61691;53.072;6.582;2023-09-19T10:18:26;100674.16;;;18.55;63.64
73457;BME280;61691;53.072;6.582;2023-09-19T10:20:56;100663.41;;;18.55;63.11
73457;BME280;61691;53.072;6.582;2023-09-19T10:23:24;100638.47;;;18.40;63.05
73457;BME280;61691;53.072;6.582;2023-09-19T10:25:53;100674.50;;;18.67;62.31
73457;BME280;61691;53.072;6.582;2023-09-19T10:28:21;100679.50;;;18.70;62.21
73457;BME280;61691;53.072;6.582;2023-09-19T10:30:51;100666.97;;;18.77;62.18
73457;BME280;61691;53.072;6.582;2023-09-19T10:33:24;100653.72;;;18.76;61.91
73457;BME280;61691;53.072;6.582;2023-09-19T10:35:53;100676.81;;;18.91;61.83
73457;BME280;61691;53.072;6.582;2023-09-19T10:38:25;100635.22;;;18.87;61.29
73457;BME280;61691;53.072;6.582;2023-09-19T10:40:54;100634.47;;;18.93;61.63
73457;BME280;61691;53.072;6.582;2023-09-19T10:43:25;100647.00;;;19.08;61.37
73457;BME280;61691;53.072;6.582;2023-09-19T10:45:53;100656.72;;;19.09;60.65
73457;BME280;61691;53.072;6.582;2023-09-19T10:48:23;100648.66;;;19.09;60.83
73457;BME280;61691;53.072;6.582;2023-09-19T10:51:09;100658.63;;;19.15;60.73
73457;BME280;61691;53.072;6.582;2023-09-19T10:53:45;100664.00;;;19.15;60.72
73457;BME280;61691;53.072;6.582;2023-09-19T10:56:37;100650.25;;;19.03;60.27
73457;BME280;61691;53.072;6.582;2023-09-19T11:07:02;100630.97;;;19.21;60.77
73457;BME280;61691;53.072;6.582;2023-09-19T11:09:52;100645.09;;;19.29;60.59
73457;BME280;61691;53.072;6.582;2023-09-19T11:12:47;100636.84;;;19.31;60.10
73457;BME280;61691;53.072;6.582;2023-09-19T11:26:44;100633.84;;;19.19;60.11
73457;BME280;61691;53.072;6.582;2023-09-19T11:29:28;100608.09;;;19.04;60.39
73457;BME280;61691;53.072;6.582;2023-09-19T11:31:58;100604.44;;;19.11;60.57
73457;BME280;61691;53.072;6.582;2023-09-19T11:34:41;100626.22;;;19.23;60.51
73457;BME280;61691;53.072;6.582;2023-09-19T11:42:45;100609.56;;;19.06;59.60
73457;BME280;61691;53.072;6.582;2023-09-19T11:48:24;100570.94;;;19.07;60.49
73457;BME280;61691;53.072;6.582;2023-09-19T11:50:54;100570.13;;;19.13;59.91
73457;BME280;61691;53.072;6.582;2023-09-19T11:53:22;100565.66;;;19.27;60.25
73457;BME280;61691;53.072;6.582;2023-09-19T11:55:49;100592.50;;;19.48;60.05
73457;BME280;61691;53.072;6.582;2023-09-19T11:58:17;100584.97;;;19.37;59.26
73457;BME280;61691;53.072;6.582;2023-09-19T12:00:54;100587.69;;;19.44;59.04
73457;BME280;61691;53.072;6.582;2023-09-19T12:03:21;100596.38;;;19.39;59.02
73457;BME280;61691;53.072;6.582;2023-09-19T12:05:49;100581.41;;;19.30;58.98
73457;BME280;61691;53.072;6.582;2023-09-19T12:08:16;100591.03;;;19.46;59.33
73457;BME280;61691;53.072;6.582;2023-09-19T12:10:45;100576.59;;;19.47;59.47
73457;BME280;61691;53.072;6.582;2023-09-19T12:13:18;100582.84;;;19.60;59.38
73457;BME280;61691;53.072;6.582;2023-09-19T12:15:45;100578.69;;;19.58;59.24
73457;BME280;61691;53.072;6.582;2023-09-19T12:18:30;100576.19;;;19.56;59.09
73457;BME280;61691;53.072;6.582;2023-09-19T12:20:57;100582.75;;;19.47;58.84
73457;BME280;61691;53.072;6.582;2023-09-19T12:23:25;100554.88;;;19.20;59.53
73457;BME280;61691;53.072;6.582;2023-09-19T12:25:54;100579.44;;;19.17;59.64
73457;BME280;61691;53.072;6.582;2023-09-19T12:28:27;100571.34;;;19.11;59.87
73457;BME280;61691;53.072;6.582;2023-09-19T12:31:06;100583.75;;;19.12;59.94
73457;BME280;61691;53.072;6.582;2023-09-19T12:33:34;100579.81;;;19.08;60.35
73457;BME280;61691;53.072;6.582;2023-09-19T12:36:19;100563.06;;;19.06;60.36
73457;BME280;61691;53.072;6.582;2023-09-19T12:38:48;100571.22;;;19.25;60.41
73457;BME280;61691;53.072;6.582;2023-09-19T12:41:15;100563.66;;;19.36;60.45
73457;BME280;61691;53.072;6.582;2023-09-19T12:43:42;100552.94;;;19.42;60.67
73457;BME280;61691;53.072;6.582;2023-09-19T12:46:10;100549.69;;;19.47;60.06
73457;BME280;61691;53.072;6.582;2023-09-19T12:48:36;100558.41;;;19.55;59.77
73457;BME280;61691;53.072;6.582;2023-09-19T12:51:09;100534.38;;;19.47;59.92
73457;BME280;61691;53.072;6.582;2023-09-19T12:53:44;100532.72;;;19.46;59.82
73457;BME280;61691;53.072;6.582;2023-09-19T12:56:16;100552.41;;;19.53;59.58
73457;BME280;61691;53.072;6.582;2023-09-19T12:58:52;100556.31;;;19.51;59.79
73457;BME280;61691;53.072;6.582;2023-09-19T13:01:23;100541.09;;;19.30;59.77
73457;BME280;61691;53.072;6.582;2023-09-19T13:04:17;100541.47;;;19.27;59.79
73457;BME280;61691;53.072;6.582;2023-09-19T13:06:51;100561.47;;;19.18;60.23
73457;BME280;61691;53.072;6.582;2023-09-19T13:09:20;100536.56;;;19.03;60.18
73457;BME280;61691;53.072;6.582;2023-09-19T13:11:47;100539.91;;;19.05;60.51
73457;BME280;61691;53.072;6.582;2023-09-19T13:14:19;100520.78;;;18.86;60.60
73457;BME280;61691;53.072;6.582;2023-09-19T13:17:06;100543.59;;;19.04;60.56
73457;BME280;61691;53.072;6.582;2023-09-19T13:19:46;100540.69;;;18.99;61.13
73457;BME280;61691;53.072;6.582;2023-09-19T13:22:40;100548.56;;;19.00;61.04
73457;BME280;61691;53.072;6.582;2023-09-19T13:25:16;100520.53;;;18.81;61.39
73457;BME280;61691;53.072;6.582;2023-09-19T13:27:53;100539.59;;;18.86;61.72
73457;BME280;61691;53.072;6.582;2023-09-19T13:30:23;100567.47;;;18.85;61.85
73457;BME280;61691;53.072;6.582;2023-09-19T13:33:05;100551.50;;;18.77;61.99
73457;BME280;61691;53.072;6.582;2023-09-19T13:35:33;100544.59;;;18.68;62.44
73457;BME280;61691;53.072;6.582;2023-09-19T13:38:00;100543.34;;;18.64;62.82
73457;BME280;61691;53.072;6.582;2023-09-19T13:40:27;100541.91;;;18.68;63.09
73457;BME280;61691;53.072;6.582;2023-09-19T13:42:57;100527.91;;;18.51;63.16
73457;BME280;61691;53.072;6.582;2023-09-19T13:45:24;100558.38;;;18.65;63.18
73457;BME280;61691;53.072;6.582;2023-09-19T13:47:51;100571.81;;;18.65;63.32
73457;BME280;61691;53.072;6.582;2023-09-19T13:50:18;100565.94;;;18.55;63.54
73457;BME280;61691;53.072;6.582;2023-09-19T13:52:51;100569.00;;;18.52;63.95
73457;BME280;61691;53.072;6.582;2023-09-19T13:55:18;100561.72;;;18.46;64.22
73457;BME280;61691;53.072;6.582;2023-09-19T13:57:49;100546.25;;;18.48;64.63